sensor_id;sensor_type;location;lat;lon;timestamp;P1;durP1;ratioP1;P2;durP2;ratioP2
69220;SDS011;56331;51.992;20.910;2022-10-23T00:01:28;6.33;;;4.35;;
69220;SDS011;56331;51.992;20.910;2022-10-23T00:04:03;4.85;;;3.90;;
69220;SDS011;56331;51.992;20.910;2022-10-23T00:08:55;5.85;;;3.87;;
69220;SDS011;56331;51.992;20.910;2022-10-23T00:11:22;4.85;;;3.62;;
69220;SDS011;56331;51.992;20.910;2022-10-23T00:13:52;5.60;;;4.28;;
69220;SDS011;56331;51.992;20.910;2022-10-23T00:16:20;5.90;;;3.87;;
69220;SDS011;56331;51.992;20.910;2022-10-23T00:18:47;5.47;;;4.10;;
69220;SDS011;56331;51.992;20.910;2022-10-23T00:21:13;5.15;;;3.83;;
69220;SDS011;56331;51.992;20.910;2022-10-23T00:23:41;6.40;;;4.22;;
69220;SDS011;56331;51.992;20.910;2022-10-23T00:26:08;5.05;;;4.10;;
69220;SDS011;56331;51.992;20.910;2022-10-23T00:28:39;6.20;;;4.50;;
69220;SDS011;56331;51.992;20.910;2022-10-23T00:31:05;5.22;;;4.15;;
69220;SDS011;56331;51.992;20.910;2022-10-23T00:33:32;6.05;;;4.22;;
69220;SDS011;56331;51.992;20.910;2022-10-23T00:35:58;7.55;;;4.28;;
69220;SDS011;56331;51.992;20.910;2022-10-23T00:38:24;5.08;;;3.87;;
69220;SDS011;56331;51.992;20.910;2022-10-23T00:40:51;5.53;;;3.90;;
69220;SDS011;56331;51.992;20.910;2022-10-23T00:43:21;6.50;;;4.20;;
69220;SDS011;56331;51.992;20.910;2022-10-23T00:45:50;5.37;;;4.03;;
69220;SDS011;56331;51.992;20.910;2022-10-23T00:48:17;4.97;;;3.80;;
69220;SDS011;56331;51.992;20.910;2022-10-23T00:50:45;5.55;;;4.00;;
69220;SDS011;56331;51.992;20.910;2022-10-23T00:53:13;4.97;;;3.58;;
69220;SDS011;56331;51.992;20.910;2022-10-23T00:55:41;5.60;;;3.67;;
69220;SDS011;56331;51.992;20.910;2022-10-23T00:58:12;4.70;;;3.77;;
69220;SDS011;56331;51.992;20.910;2022-10-23T01:00:41;4.65;;;3.77;;
69220;SDS011;56331;51.992;20.910;2022-10-23T01:05:40;5.25;;;3.72;;
69220;SDS011;56331;51.992;20.910;2022-10-23T01:11:04;4.70;;;3.67;;
69220;SDS011;56331;51.992;20.910;2022-10-23T01:18:48;5.08;;;3.65;;
69220;SDS011;56331;51.992;20.910;2022-10-23T01:21:21;5.22;;;3.80;;
69220;SDS011;56331;51.992;20.910;2022-10-23T01:31:57;6.37;;;3.42;;
69220;SDS011;56331;51.992;20.910;2022-10-23T01:34:29;4.90;;;3.67;;
69220;SDS011;56331;51.992;20.910;2022-10-23T01:36:57;4.92;;;3.62;;
69220;SDS011;56331;51.992;20.910;2022-10-23T01:39:28;5.30;;;3.83;;
69220;SDS011;56331;51.992;20.910;2022-10-23T01:47:06;5.17;;;3.70;;
69220;SDS011;56331;51.992;20.910;2022-10-23T01:49:35;6.10;;;3.55;;
69220;SDS011;56331;51.992;20.910;2022-10-23T01:52:05;5.72;;;3.90;;
69220;SDS011;56331;51.992;20.910;2022-10-23T01:54:34;4.47;;;3.80;;
69220;SDS011;56331;51.992;20.910;2022-10-23T01:59:32;5.28;;;3.72;;
69220;SDS011;56331;51.992;20.910;2022-10-23T02:02:01;5.72;;;4.25;;
69220;SDS011;56331;51.992;20.910;2022-10-23T02:04:33;5.90;;;4.20;;
69220;SDS011;56331;51.992;20.910;2022-10-23T02:07:05;5.83;;;4.45;;
69220;SDS011;56331;51.992;20.910;2022-10-23T02:09:32;5.85;;;4.45;;
69220;SDS011;56331;51.992;20.910;2022-10-23T02:12:07;6.87;;;4.53;;
69220;SDS011;56331;51.992;20.910;2022-10-23T02:18:04;5.60;;;4.53;;
69220;SDS011;56331;51.992;20.910;2022-10-23T02:19:58;6.62;;;4.97;;
69220;SDS011;56331;51.992;20.910;2022-10-23T02:22:47;7.53;;;5.03;;
69220;SDS011;56331;51.992;20.910;2022-10-23T02:25:15;6.62;;;4.70;;
69220;SDS011;56331;51.992;20.910;2022-10-23T02:30:12;7.12;;;4.97;;
69220;SDS011;56331;51.992;20.910;2022-10-23T02:32:43;6.35;;;4.47;;
69220;SDS011;56331;51.992;20.910;2022-10-23T02:37:38;7.10;;;5.10;;
69220;SDS011;56331;51.992;20.910;2022-10-23T02:40:04;6.10;;;4.75;;
69220;SDS011;56331;51.992;20.910;2022-10-23T02:42:35;7.40;;;5.47;;
69220;SDS011;56331;51.992;20.910;2022-10-23T02:45:11;6.22;;;4.65;;
69220;SDS011;56331;51.992;20.910;2022-10-23T02:48:03;6.17;;;4.83;;
69220;SDS011;56331;51.992;20.910;2022-10-23T02:53:42;6.35;;;4.67;;
69220;SDS011;56331;51.992;20.910;2022-10-23T02:56:16;6.33;;;5.10;;
69220;SDS011;56331;51.992;20.910;2022-10-23T02:58:59;6.45;;;4.80;;
69220;SDS011;56331;51.992;20.910;2022-10-23T03:01:32;7.97;;;5.58;;
69220;SDS011;56331;51.992;20.910;2022-10-23T03:04:05;6.58;;;5.45;;
69220;SDS011;56331;51.992;20.910;2022-10-23T03:06:33;8.05;;;5.35;;
69220;SDS011;56331;51.992;20.910;2022-10-23T03:09:02;6.50;;;5.25;;
69220;SDS011;56331;51.992;20.910;2022-10-23T03:13:55;6.50;;;5.05;;
69220;SDS011;56331;51.992;20.910;2022-10-23T03:16:21;6.62;;;5.22;;
69220;SDS011;56331;51.992;20.910;2022-10-23T03:18:48;6.00;;;5.12;;
69220;SDS011;56331;51.992;20.910;2022-10-23T03:21:14;6.92;;;5.00;;
69220;SDS011;56331;51.992;20.910;2022-10-23T03:23:40;7.08;;;5.33;;
69220;SDS011;56331;51.992;20.910;2022-10-23T03:26:07;6.40;;;4.87;;
69220;SDS011;56331;51.992;20.910;2022-10-23T03:28:33;7.45;;;5.37;;
69220;SDS011;56331;51.992;20.910;2022-10-23T03:31:00;6.97;;;4.78;;
69220;SDS011;56331;51.992;20.910;2022-10-23T03:33:28;6.42;;;5.53;;
69220;SDS011;56331;51.992;20.910;2022-10-23T03:35:55;7.72;;;5.40;;
69220;SDS011;56331;51.992;20.910;2022-10-23T03:38:21;6.15;;;5.17;;
69220;SDS011;56331;51.992;20.910;2022-10-23T03:40:48;6.83;;;5.15;;
69220;SDS011;56331;51.992;20.910;2022-10-23T03:43:14;7.53;;;5.50;;
69220;SDS011;56331;51.992;20.910;2022-10-23T03:45:40;6.75;;;5.33;;
69220;SDS011;56331;51.992;20.910;2022-10-23T03:48:07;6.03;;;4.92;;
69220;SDS011;56331;51.992;20.910;2022-10-23T03:50:33;6.30;;;5.17;;
69220;SDS011;56331;51.992;20.910;2022-10-23T03:53:00;6.30;;;5.10;;
69220;SDS011;56331;51.992;20.910;2022-10-23T03:55:26;6.22;;;4.75;;
69220;SDS011;56331;51.992;20.910;2022-10-23T03:57:53;6.78;;;5.55;;
69220;SDS011;56331;51.992;20.910;2022-10-23T04:02:55;6.28;;;4.50;;
69220;SDS011;56331;51.992;20.910;2022-10-23T04:05:21;5.60;;;4.50;;
69220;SDS011;56331;51.992;20.910;2022-10-23T04:07:47;4.75;;;3.90;;
69220;SDS011;56331;51.992;20.910;2022-10-23T04:10:14;5.35;;;4.28;;
69220;SDS011;56331;51.992;20.910;2022-10-23T04:12:40;4.97;;;4.12;;
69220;SDS011;56331;51.992;20.910;2022-10-23T04:15:07;5.47;;;4.35;;
69220;SDS011;56331;51.992;20.910;2022-10-23T04:17:33;6.62;;;4.37;;
69220;SDS011;56331;51.992;20.910;2022-10-23T04:20:00;5.90;;;4.65;;
69220;SDS011;56331;51.992;20.910;2022-10-23T04:22:26;6.15;;;4.70;;
69220;SDS011;56331;51.992;20.910;2022-10-23T04:24:53;5.45;;;4.20;;
69220;SDS011;56331;51.992;20.910;2022-10-23T04:27:19;6.10;;;4.33;;
69220;SDS011;56331;51.992;20.910;2022-10-23T04:29:46;7.83;;;4.70;;
69220;SDS011;56331;51.992;20.910;2022-10-23T04:32:24;6.62;;;4.58;;
69220;SDS011;56331;51.992;20.910;2022-10-23T04:34:51;6.20;;;5.05;;
69220;SDS011;56331;51.992;20.910;2022-10-23T04:37:17;5.22;;;4.40;;
69220;SDS011;56331;51.992;20.910;2022-10-23T04:39:44;5.85;;;4.55;;
69220;SDS011;56331;51.992;20.910;2022-10-23T04:42:10;6.10;;;4.45;;
69220;SDS011;56331;51.992;20.910;2022-10-23T04:44:36;5.10;;;4.22;;
69220;SDS011;56331;51.992;20.910;2022-10-23T04:47:03;5.37;;;4.37;;
69220;SDS011;56331;51.992;20.910;2022-10-23T04:49:29;5.87;;;4.47;;
69220;SDS011;56331;51.992;20.910;2022-10-23T04:51:55;6.20;;;4.40;;
69220;SDS011;56331;51.992;20.910;2022-10-23T04:54:22;6.12;;;4.72;;
69220;SDS011;56331;51.992;20.910;2022-10-23T04:56:48;6.58;;;4.08;;
69220;SDS011;56331;51.992;20.910;2022-10-23T04:59:14;5.10;;;4.12;;
69220;SDS011;56331;51.992;20.910;2022-10-23T05:01:41;7.12;;;4.78;;
69220;SDS011;56331;51.992;20.910;2022-10-23T05:04:08;6.47;;;4.70;;
69220;SDS011;56331;51.992;20.910;2022-10-23T05:06:34;6.42;;;5.00;;
69220;SDS011;56331;51.992;20.910;2022-10-23T05:09:00;6.00;;;5.20;;
69220;SDS011;56331;51.992;20.910;2022-10-23T05:11:27;6.15;;;4.87;;
69220;SDS011;56331;51.992;20.910;2022-10-23T05:13:53;6.40;;;5.00;;
69220;SDS011;56331;51.992;20.910;2022-10-23T05:16:42;6.03;;;4.45;;
69220;SDS011;56331;51.992;20.910;2022-10-23T05:19:14;6.62;;;5.30;;
69220;SDS011;56331;51.992;20.910;2022-10-23T05:21:49;6.33;;;5.25;;
69220;SDS011;56331;51.992;20.910;2022-10-23T05:24:19;7.95;;;5.67;;
69220;SDS011;56331;51.992;20.910;2022-10-23T05:26:46;6.20;;;4.90;;
69220;SDS011;56331;51.992;20.910;2022-10-23T05:29:12;6.03;;;5.08;;
69220;SDS011;56331;51.992;20.910;2022-10-23T05:31:39;7.58;;;5.65;;
69220;SDS011;56331;51.992;20.910;2022-10-23T05:34:05;7.30;;;5.30;;
69220;SDS011;56331;51.992;20.910;2022-10-23T05:36:32;5.90;;;5.08;;
69220;SDS011;56331;51.992;20.910;2022-10-23T05:38:58;6.22;;;4.67;;
69220;SDS011;56331;51.992;20.910;2022-10-23T05:41:29;6.53;;;5.05;;
69220;SDS011;56331;51.992;20.910;2022-10-23T05:43:56;5.97;;;4.95;;
69220;SDS011;56331;51.992;20.910;2022-10-23T05:46:23;6.33;;;5.00;;
69220;SDS011;56331;51.992;20.910;2022-10-23T05:48:49;6.15;;;5.25;;
69220;SDS011;56331;51.992;20.910;2022-10-23T05:51:16;5.30;;;4.65;;
69220;SDS011;56331;51.992;20.910;2022-10-23T05:53:45;5.78;;;4.80;;
69220;SDS011;56331;51.992;20.910;2022-10-23T05:56:11;6.10;;;4.50;;
69220;SDS011;56331;51.992;20.910;2022-10-23T05:58:38;7.58;;;5.20;;
69220;SDS011;56331;51.992;20.910;2022-10-23T06:01:06;5.67;;;4.95;;
69220;SDS011;56331;51.992;20.910;2022-10-23T06:03:34;5.53;;;4.55;;
69220;SDS011;56331;51.992;20.910;2022-10-23T06:06:01;6.05;;;4.60;;
69220;SDS011;56331;51.992;20.910;2022-10-23T06:08:29;5.97;;;4.60;;
69220;SDS011;56331;51.992;20.910;2022-10-23T06:10:55;5.42;;;3.80;;
69220;SDS011;56331;51.992;20.910;2022-10-23T06:13:22;4.67;;;3.98;;
69220;SDS011;56331;51.992;20.910;2022-10-23T06:15:49;4.72;;;4.20;;
69220;SDS011;56331;51.992;20.910;2022-10-23T06:18:15;5.17;;;4.15;;
69220;SDS011;56331;51.992;20.910;2022-10-23T06:20:42;5.28;;;4.22;;
69220;SDS011;56331;51.992;20.910;2022-10-23T06:23:09;4.85;;;3.98;;
69220;SDS011;56331;51.992;20.910;2022-10-23T06:25:36;4.90;;;3.98;;
69220;SDS011;56331;51.992;20.910;2022-10-23T06:28:02;4.78;;;3.77;;
69220;SDS011;56331;51.992;20.910;2022-10-23T06:30:28;4.55;;;3.65;;
69220;SDS011;56331;51.992;20.910;2022-10-23T06:32:54;5.12;;;3.80;;
69220;SDS011;56331;51.992;20.910;2022-10-23T06:35:21;4.92;;;4.42;;
69220;SDS011;56331;51.992;20.910;2022-10-23T06:37:47;5.20;;;3.75;;
69220;SDS011;56331;51.992;20.910;2022-10-23T06:40:13;4.60;;;4.12;;
69220;SDS011;56331;51.992;20.910;2022-10-23T06:42:40;4.97;;;3.83;;
69220;SDS011;56331;51.992;20.910;2022-10-23T06:45:07;4.25;;;3.75;;
69220;SDS011;56331;51.992;20.910;2022-10-23T06:47:33;4.50;;;3.72;;
69220;SDS011;56331;51.992;20.910;2022-10-23T06:50:00;4.80;;;3.92;;
69220;SDS011;56331;51.992;20.910;2022-10-23T06:52:28;4.75;;;4.00;;
69220;SDS011;56331;51.992;20.910;2022-10-23T06:54:56;6.90;;;4.00;;
69220;SDS011;56331;51.992;20.910;2022-10-23T06:57:22;7.22;;;4.25;;
69220;SDS011;56331;51.992;20.910;2022-10-23T06:59:49;7.47;;;4.62;;
69220;SDS011;56331;51.992;20.910;2022-10-23T07:02:15;7.15;;;4.10;;
69220;SDS011;56331;51.992;20.910;2022-10-23T07:04:42;5.03;;;4.35;;
69220;SDS011;56331;51.992;20.910;2022-10-23T07:07:10;4.72;;;4.15;;
69220;SDS011;56331;51.992;20.910;2022-10-23T07:09:36;5.92;;;4.28;;
69220;SDS011;56331;51.992;20.910;2022-10-23T07:12:03;5.92;;;4.30;;
69220;SDS011;56331;51.992;20.910;2022-10-23T07:14:30;5.28;;;4.25;;
69220;SDS011;56331;51.992;20.910;2022-10-23T07:16:57;8.23;;;4.60;;
69220;SDS011;56331;51.992;20.910;2022-10-23T07:19:24;5.92;;;4.35;;
69220;SDS011;56331;51.992;20.910;2022-10-23T07:21:50;5.70;;;4.60;;
69220;SDS011;56331;51.992;20.910;2022-10-23T07:24:16;11.75;;;4.45;;
69220;SDS011;56331;51.992;20.910;2022-10-23T07:26:43;5.15;;;4.37;;
69220;SDS011;56331;51.992;20.910;2022-10-23T07:29:10;6.17;;;4.75;;
69220;SDS011;56331;51.992;20.910;2022-10-23T07:31:37;7.67;;;4.50;;
69220;SDS011;56331;51.992;20.910;2022-10-23T07:34:04;4.45;;;4.05;;
69220;SDS011;56331;51.992;20.910;2022-10-23T07:36:30;5.40;;;4.65;;
69220;SDS011;56331;51.992;20.910;2022-10-23T07:38:57;6.10;;;4.37;;
69220;SDS011;56331;51.992;20.910;2022-10-23T07:41:23;6.47;;;4.42;;
69220;SDS011;56331;51.992;20.910;2022-10-23T07:43:49;6.37;;;4.55;;
69220;SDS011;56331;51.992;20.910;2022-10-23T07:46:16;7.60;;;4.58;;
69220;SDS011;56331;51.992;20.910;2022-10-23T07:48:42;8.73;;;4.33;;
69220;SDS011;56331;51.992;20.910;2022-10-23T07:51:12;6.03;;;4.60;;
69220;SDS011;56331;51.992;20.910;2022-10-23T07:53:40;6.20;;;4.50;;
69220;SDS011;56331;51.992;20.910;2022-10-23T07:56:12;5.67;;;4.35;;
69220;SDS011;56331;51.992;20.910;2022-10-23T07:58:37;5.20;;;4.70;;
69220;SDS011;56331;51.992;20.910;2022-10-23T08:01:05;5.47;;;4.22;;
69220;SDS011;56331;51.992;20.910;2022-10-23T08:06:00;4.75;;;3.65;;
69220;SDS011;56331;51.992;20.910;2022-10-23T08:08:26;4.45;;;3.42;;
69220;SDS011;56331;51.992;20.910;2022-10-23T08:10:53;5.80;;;4.05;;
69220;SDS011;56331;51.992;20.910;2022-10-23T08:13:20;5.62;;;3.65;;
69220;SDS011;56331;51.992;20.910;2022-10-23T08:15:47;4.78;;;3.67;;
69220;SDS011;56331;51.992;20.910;2022-10-23T08:18:15;7.03;;;3.45;;
69220;SDS011;56331;51.992;20.910;2022-10-23T08:20:42;5.80;;;4.00;;
69220;SDS011;56331;51.992;20.910;2022-10-23T08:23:11;5.47;;;3.87;;
69220;SDS011;56331;51.992;20.910;2022-10-23T08:25:39;5.00;;;3.58;;
69220;SDS011;56331;51.992;20.910;2022-10-23T08:28:06;4.50;;;3.75;;
69220;SDS011;56331;51.992;20.910;2022-10-23T08:30:33;6.12;;;3.90;;
69220;SDS011;56331;51.992;20.910;2022-10-23T08:33:04;7.50;;;3.58;;
69220;SDS011;56331;51.992;20.910;2022-10-23T08:35:29;4.97;;;3.43;;
69220;SDS011;56331;51.992;20.910;2022-10-23T08:37:55;5.30;;;3.30;;
69220;SDS011;56331;51.992;20.910;2022-10-23T08:40:22;5.65;;;3.83;;
69220;SDS011;56331;51.992;20.910;2022-10-23T08:43:04;6.15;;;3.60;;
69220;SDS011;56331;51.992;20.910;2022-10-23T08:45:42;5.55;;;3.50;;
69220;SDS011;56331;51.992;20.910;2022-10-23T08:48:33;5.70;;;4.10;;
69220;SDS011;56331;51.992;20.910;2022-10-23T08:51:05;6.03;;;3.83;;
69220;SDS011;56331;51.992;20.910;2022-10-23T08:56:13;4.08;;;3.22;;
69220;SDS011;56331;51.992;20.910;2022-10-23T09:03:59;4.72;;;3.33;;
69220;SDS011;56331;51.992;20.910;2022-10-23T09:09:16;4.60;;;3.30;;
69220;SDS011;56331;51.992;20.910;2022-10-23T09:11:47;5.58;;;3.65;;
69220;SDS011;56331;51.992;20.910;2022-10-23T09:19:53;5.40;;;3.70;;
69220;SDS011;56331;51.992;20.910;2022-10-23T09:22:39;5.05;;;3.65;;
69220;SDS011;56331;51.992;20.910;2022-10-23T09:25:10;4.95;;;3.80;;
69220;SDS011;56331;51.992;20.910;2022-10-23T09:27:49;6.10;;;3.67;;
69220;SDS011;56331;51.992;20.910;2022-10-23T09:30:25;4.75;;;3.83;;
69220;SDS011;56331;51.992;20.910;2022-10-23T09:32:57;4.42;;;3.62;;
69220;SDS011;56331;51.992;20.910;2022-10-23T09:35:26;4.20;;;3.52;;
69220;SDS011;56331;51.992;20.910;2022-10-23T09:37:55;5.17;;;4.03;;
69220;SDS011;56331;51.992;20.910;2022-10-23T09:40:30;5.03;;;4.12;;
69220;SDS011;56331;51.992;20.910;2022-10-23T09:43:00;4.45;;;3.85;;
69220;SDS011;56331;51.992;20.910;2022-10-23T09:45:32;6.00;;;4.08;;
69220;SDS011;56331;51.992;20.910;2022-10-23T09:48:08;6.17;;;4.45;;
69220;SDS011;56331;51.992;20.910;2022-10-23T09:50:32;6.08;;;3.90;;
69220;SDS011;56331;51.992;20.910;2022-10-23T09:52:59;6.83;;;4.58;;
69220;SDS011;56331;51.992;20.910;2022-10-23T09:55:25;4.90;;;3.55;;
69220;SDS011;56331;51.992;20.910;2022-10-23T09:57:54;3.85;;;3.40;;
69220;SDS011;56331;51.992;20.910;2022-10-23T10:00:25;4.75;;;3.52;;
69220;SDS011;56331;51.992;20.910;2022-10-23T10:03:02;4.47;;;3.72;;
69220;SDS011;56331;51.992;20.910;2022-10-23T10:10:38;5.60;;;3.75;;
69220;SDS011;56331;51.992;20.910;2022-10-23T10:18:41;6.55;;;4.25;;
69220;SDS011;56331;51.992;20.910;2022-10-23T10:21:13;6.45;;;4.20;;
69220;SDS011;56331;51.992;20.910;2022-10-23T10:23:45;4.28;;;3.70;;
69220;SDS011;56331;51.992;20.910;2022-10-23T10:29:18;4.25;;;3.62;;
69220;SDS011;56331;51.992;20.910;2022-10-23T10:34:44;5.03;;;3.87;;
69220;SDS011;56331;51.992;20.910;2022-10-23T10:43:12;4.03;;;3.42;;
69220;SDS011;56331;51.992;20.910;2022-10-23T10:45:43;4.95;;;3.52;;
69220;SDS011;56331;51.992;20.910;2022-10-23T10:50:44;4.45;;;3.17;;
69220;SDS011;56331;51.992;20.910;2022-10-23T10:56:12;4.75;;;3.40;;
69220;SDS011;56331;51.992;20.910;2022-10-23T11:01:20;4.87;;;3.75;;
69220;SDS011;56331;51.992;20.910;2022-10-23T11:03:56;3.92;;;3.15;;
69220;SDS011;56331;51.992;20.910;2022-10-23T11:06:25;3.92;;;3.30;;
69220;SDS011;56331;51.992;20.910;2022-10-23T11:08:54;4.42;;;3.25;;
69220;SDS011;56331;51.992;20.910;2022-10-23T11:11:27;4.03;;;3.47;;
69220;SDS011;56331;51.992;20.910;2022-10-23T11:14:21;4.85;;;3.22;;
69220;SDS011;56331;51.992;20.910;2022-10-23T11:16:50;4.95;;;3.40;;
69220;SDS011;56331;51.992;20.910;2022-10-23T11:19:39;3.70;;;3.15;;
69220;SDS011;56331;51.992;20.910;2022-10-23T11:24:47;4.20;;;3.22;;
69220;SDS011;56331;51.992;20.910;2022-10-23T11:30:18;5.58;;;3.30;;
69220;SDS011;56331;51.992;20.910;2022-10-23T11:38:25;3.77;;;3.17;;
69220;SDS011;56331;51.992;20.910;2022-10-23T11:40:58;6.47;;;3.40;;
69220;SDS011;56331;51.992;20.910;2022-10-23T11:43:32;3.75;;;3.10;;
69220;SDS011;56331;51.992;20.910;2022-10-23T11:46:14;3.27;;;2.77;;
69220;SDS011;56331;51.992;20.910;2022-10-23T11:48:53;3.65;;;3.15;;
69220;SDS011;56331;51.992;20.910;2022-10-23T11:51:28;5.83;;;3.20;;
69220;SDS011;56331;51.992;20.910;2022-10-23T11:59:21;4.03;;;3.40;;
69220;SDS011;56331;51.992;20.910;2022-10-23T12:01:52;4.17;;;3.45;;
69220;SDS011;56331;51.992;20.910;2022-10-23T12:04:23;5.03;;;3.20;;
69220;SDS011;56331;51.992;20.910;2022-10-23T12:06:59;4.55;;;3.22;;
69220;SDS011;56331;51.992;20.910;2022-10-23T12:12:16;4.58;;;3.35;;
69220;SDS011;56331;51.992;20.910;2022-10-23T12:15:07;4.00;;;3.12;;
69220;SDS011;56331;51.992;20.910;2022-10-23T12:17:39;5.12;;;3.40;;
69220;SDS011;56331;51.992;20.910;2022-10-23T12:28:07;4.62;;;3.42;;
69220;SDS011;56331;51.992;20.910;2022-10-23T12:30:44;4.60;;;3.33;;
69220;SDS011;56331;51.992;20.910;2022-10-23T12:38:31;3.90;;;3.50;;
69220;SDS011;56331;51.992;20.910;2022-10-23T12:41:05;4.37;;;3.75;;
69220;SDS011;56331;51.992;20.910;2022-10-23T12:43:32;4.08;;;3.40;;
69220;SDS011;56331;51.992;20.910;2022-10-23T12:46:15;4.60;;;3.60;;
69220;SDS011;56331;51.992;20.910;2022-10-23T12:50:59;4.00;;;3.12;;
69220;SDS011;56331;51.992;20.910;2022-10-23T12:53:25;4.37;;;3.50;;
69220;SDS011;56331;51.992;20.910;2022-10-23T12:58:29;3.92;;;3.22;;
69220;SDS011;56331;51.992;20.910;2022-10-23T13:03:26;4.60;;;3.10;;
69220;SDS011;56331;51.992;20.910;2022-10-23T13:05:55;4.13;;;3.43;;
69220;SDS011;56331;51.992;20.910;2022-10-23T13:08:26;3.55;;;3.12;;
69220;SDS011;56331;51.992;20.910;2022-10-23T13:10:54;3.87;;;2.90;;
69220;SDS011;56331;51.992;20.910;2022-10-23T13:13:21;3.77;;;2.92;;
69220;SDS011;56331;51.992;20.910;2022-10-23T13:15:48;4.55;;;3.37;;
69220;SDS011;56331;51.992;20.910;2022-10-23T13:18:15;3.77;;;2.98;;
69220;SDS011;56331;51.992;20.910;2022-10-23T13:20:54;4.40;;;3.15;;
69220;SDS011;56331;51.992;20.910;2022-10-23T13:25:57;3.67;;;3.27;;
69220;SDS011;56331;51.992;20.910;2022-10-23T13:28:31;3.65;;;3.08;;
69220;SDS011;56331;51.992;20.910;2022-10-23T13:31:21;4.28;;;3.00;;
69220;SDS011;56331;51.992;20.910;2022-10-23T13:33:45;4.33;;;3.40;;
69220;SDS011;56331;51.992;20.910;2022-10-23T13:41:34;4.35;;;2.60;;
69220;SDS011;56331;51.992;20.910;2022-10-23T13:44:03;4.50;;;2.75;;
69220;SDS011;56331;51.992;20.910;2022-10-23T13:46:30;3.85;;;3.22;;
69220;SDS011;56331;51.992;20.910;2022-10-23T13:48:56;4.15;;;3.00;;
69220;SDS011;56331;51.992;20.910;2022-10-23T13:51:25;4.15;;;3.10;;
69220;SDS011;56331;51.992;20.910;2022-10-23T13:53:54;3.95;;;2.90;;
69220;SDS011;56331;51.992;20.910;2022-10-23T13:56:23;5.37;;;3.22;;
69220;SDS011;56331;51.992;20.910;2022-10-23T13:58:50;3.27;;;2.83;;
69220;SDS011;56331;51.992;20.910;2022-10-23T14:01:24;4.42;;;3.10;;
69220;SDS011;56331;51.992;20.910;2022-10-23T14:03:52;3.67;;;3.08;;
69220;SDS011;56331;51.992;20.910;2022-10-23T14:06:20;3.90;;;3.12;;
69220;SDS011;56331;51.992;20.910;2022-10-23T14:08:46;4.03;;;3.37;;
69220;SDS011;56331;51.992;20.910;2022-10-23T14:11:13;5.33;;;3.55;;
69220;SDS011;56331;51.992;20.910;2022-10-23T14:13:41;4.37;;;3.15;;
69220;SDS011;56331;51.992;20.910;2022-10-23T14:16:08;4.47;;;3.58;;
69220;SDS011;56331;51.992;20.910;2022-10-23T14:18:37;6.03;;;4.05;;
69220;SDS011;56331;51.992;20.910;2022-10-23T14:21:04;4.80;;;3.62;;
69220;SDS011;56331;51.992;20.910;2022-10-23T14:23:32;5.83;;;3.90;;
69220;SDS011;56331;51.992;20.910;2022-10-23T14:26:02;5.25;;;3.85;;
69220;SDS011;56331;51.992;20.910;2022-10-23T14:28:29;5.12;;;3.65;;
69220;SDS011;56331;51.992;20.910;2022-10-23T14:30:55;4.50;;;3.55;;
69220;SDS011;56331;51.992;20.910;2022-10-23T14:33:21;5.42;;;3.92;;
69220;SDS011;56331;51.992;20.910;2022-10-23T14:35:48;5.22;;;4.35;;
69220;SDS011;56331;51.992;20.910;2022-10-23T14:38:15;7.12;;;4.70;;
69220;SDS011;56331;51.992;20.910;2022-10-23T14:40:41;6.78;;;5.08;;
69220;SDS011;56331;51.992;20.910;2022-10-23T14:43:08;7.72;;;4.60;;
69220;SDS011;56331;51.992;20.910;2022-10-23T14:45:35;5.67;;;4.20;;
69220;SDS011;56331;51.992;20.910;2022-10-23T14:48:02;11.28;;;5.28;;
69220;SDS011;56331;51.992;20.910;2022-10-23T14:50:30;6.15;;;4.70;;
69220;SDS011;56331;51.992;20.910;2022-10-23T14:52:57;7.17;;;4.92;;
69220;SDS011;56331;51.992;20.910;2022-10-23T14:55:23;6.95;;;4.67;;
69220;SDS011;56331;51.992;20.910;2022-10-23T14:57:53;6.28;;;4.62;;
69220;SDS011;56331;51.992;20.910;2022-10-23T15:00:21;5.65;;;4.33;;
69220;SDS011;56331;51.992;20.910;2022-10-23T15:02:48;8.38;;;4.72;;
69220;SDS011;56331;51.992;20.910;2022-10-23T15:05:14;7.03;;;4.87;;
69220;SDS011;56331;51.992;20.910;2022-10-23T15:07:42;8.63;;;5.28;;
69220;SDS011;56331;51.992;20.910;2022-10-23T15:10:09;7.05;;;5.17;;
69220;SDS011;56331;51.992;20.910;2022-10-23T15:12:36;9.63;;;5.33;;
69220;SDS011;56331;51.992;20.910;2022-10-23T15:15:04;5.60;;;4.35;;
69220;SDS011;56331;51.992;20.910;2022-10-23T15:17:32;8.75;;;5.83;;
69220;SDS011;56331;51.992;20.910;2022-10-23T15:20:00;6.62;;;4.80;;
69220;SDS011;56331;51.992;20.910;2022-10-23T15:22:26;8.13;;;5.50;;
69220;SDS011;56331;51.992;20.910;2022-10-23T15:24:53;7.65;;;5.25;;
69220;SDS011;56331;51.992;20.910;2022-10-23T15:27:21;9.90;;;5.30;;
69220;SDS011;56331;51.992;20.910;2022-10-23T15:29:47;6.17;;;4.90;;
69220;SDS011;56331;51.992;20.910;2022-10-23T15:32:14;7.92;;;5.00;;
69220;SDS011;56331;51.992;20.910;2022-10-23T15:34:41;6.42;;;4.10;;
69220;SDS011;56331;51.992;20.910;2022-10-23T15:37:08;8.13;;;5.00;;
69220;SDS011;56331;51.992;20.910;2022-10-23T15:39:35;6.12;;;4.47;;
69220;SDS011;56331;51.992;20.910;2022-10-23T15:42:03;7.30;;;4.78;;
69220;SDS011;56331;51.992;20.910;2022-10-23T15:44:31;7.55;;;4.65;;
69220;SDS011;56331;51.992;20.910;2022-10-23T15:46:59;6.85;;;4.50;;
69220;SDS011;56331;51.992;20.910;2022-10-23T15:49:26;6.95;;;4.28;;
69220;SDS011;56331;51.992;20.910;2022-10-23T15:51:56;7.00;;;4.55;;
69220;SDS011;56331;51.992;20.910;2022-10-23T15:54:23;6.42;;;4.50;;
69220;SDS011;56331;51.992;20.910;2022-10-23T15:56:50;5.67;;;4.30;;
69220;SDS011;56331;51.992;20.910;2022-10-23T15:59:19;6.05;;;4.50;;
69220;SDS011;56331;51.992;20.910;2022-10-23T16:01:47;9.03;;;4.70;;
69220;SDS011;56331;51.992;20.910;2022-10-23T16:04:13;13.28;;;4.72;;
69220;SDS011;56331;51.992;20.910;2022-10-23T16:06:41;8.05;;;4.28;;
69220;SDS011;56331;51.992;20.910;2022-10-23T16:09:08;6.30;;;4.28;;
69220;SDS011;56331;51.992;20.910;2022-10-23T16:11:35;7.20;;;4.58;;
69220;SDS011;56331;51.992;20.910;2022-10-23T16:14:03;6.30;;;4.12;;
69220;SDS011;56331;51.992;20.910;2022-10-23T16:16:31;6.40;;;4.00;;
69220;SDS011;56331;51.992;20.910;2022-10-23T16:18:58;6.05;;;4.28;;
69220;SDS011;56331;51.992;20.910;2022-10-23T16:21:27;6.75;;;4.25;;
69220;SDS011;56331;51.992;20.910;2022-10-23T16:23:56;7.80;;;4.47;;
69220;SDS011;56331;51.992;20.910;2022-10-23T16:26:24;7.50;;;4.50;;
69220;SDS011;56331;51.992;20.910;2022-10-23T16:28:52;7.58;;;4.45;;
69220;SDS011;56331;51.992;20.910;2022-10-23T16:31:19;6.37;;;4.37;;
69220;SDS011;56331;51.992;20.910;2022-10-23T16:33:46;8.65;;;4.20;;
69220;SDS011;56331;51.992;20.910;2022-10-23T16:36:13;39.00;;;9.85;;
69220;SDS011;56331;51.992;20.910;2022-10-23T16:38:41;90.65;;;18.15;;
69220;SDS011;56331;51.992;20.910;2022-10-23T16:41:07;106.32;;;22.22;;
69220;SDS011;56331;51.992;20.910;2022-10-23T16:43:33;109.57;;;20.97;;
69220;SDS011;56331;51.992;20.910;2022-10-23T16:48:33;68.22;;;16.48;;
69220;SDS011;56331;51.992;20.910;2022-10-23T16:51:03;54.27;;;15.80;;
69220;SDS011;56331;51.992;20.910;2022-10-23T16:53:33;56.68;;;14.78;;
69220;SDS011;56331;51.992;20.910;2022-10-23T16:56:05;39.38;;;13.18;;
69220;SDS011;56331;51.992;20.910;2022-10-23T16:58:33;52.78;;;12.88;;
69220;SDS011;56331;51.992;20.910;2022-10-23T17:01:07;36.13;;;11.40;;
69220;SDS011;56331;51.992;20.910;2022-10-23T17:03:33;37.40;;;11.95;;
69220;SDS011;56331;51.992;20.910;2022-10-23T17:06:02;32.53;;;10.38;;
69220;SDS011;56331;51.992;20.910;2022-10-23T17:08:31;28.17;;;9.73;;